^^
Grace C. Lehan Memorial Weather Station Historical Data
Daily Summary for July 8, 2022 Units:  English    Metric   Both
Daily Weekly Monthly Yearly
  High: Low: Average:
Temperature: 54.7 °F 36.9 °F 48.8 °F
Dew Point: 50.9 °F 29.8 °F 40 °F
Humidity: 86.9% 55.8% 72%
Wind Speed: 9.9mph 0mph 2.4mph
Wind Gust: 20mph - -
Wind- - WNW
Pressure: 30.23 in 30.04 in -
Precipitation: 0.00 in    
 
 
Tabular Data for July 8, 2022
Time Temperature Dew Point Pressure Wind Wind Speed Wind Gust Humidity Rainfall Rate (Hourly) solar
00:04 54.7 °F 50.9 °F 30.04 in North 1.7 mph 17 mph 86.9% 0.00 in 0 W/m2
00:09 54.5 °F 50.4 °F 30.04 in North 0.6 mph 5 mph 86% 0.00 in 0 W/m2
00:14 54.4 °F 50.3 °F 30.04 in North 0.7 mph 5 mph 86% 0.00 in 0 W/m2
00:19 54.3 °F 50 °F 30.04 in North 1.8 mph 7 mph 85.6% 0.00 in 0 W/m2
00:24 54.2 °F 49.8 °F 30.05 in NNE 0.8 mph 9 mph 85% 0.00 in 0 W/m2
00:29 54 °F 49.6 °F 30.05 in NNW 2.1 mph 10 mph 85% 0.00 in 0 W/m2
00:34 54 °F 49.3 °F 30.05 in NNE 1 mph 10 mph 84.1% 0.00 in 0 W/m2
00:39 54 °F 49.2 °F 30.05 in ENE 1.1 mph 5 mph 84% 0.00 in 0 W/m2
00:44 53.9 °F 49.2 °F 30.05 in ENE 0.2 mph 5 mph 84% 0.00 in 0 W/m2
00:49 53.8 °F 49.1 °F 30.05 in NNE 1.3 mph 6 mph 84% 0.00 in 0 W/m2
00:54 53.7 °F 48.7 °F 30.05 in NW 0.6 mph 6 mph 83.1% 0.00 in 0 W/m2
00:59 53.5 °F 48.5 °F 30.05 in NE 1.2 mph 6 mph 83% 0.00 in 0 W/m2
01:04 53.4 °F 48.4 °F 30.05 in NNW 0.3 mph 6 mph 83% 0.00 in 0 W/m2
01:09 53.3 °F 48.2 °F 30.05 in NNE 0.2 mph 3 mph 83% 0.00 in 0 W/m2
01:14 53.1 °F 48 °F 30.05 in North 0.1 mph 3 mph 83% 0.00 in 0 W/m2
01:19 52.9 °F 47.9 °F 30.05 in Calm   3 mph 83% 0.00 in 0 W/m2
01:24 52.8 °F 47.8 °F 30.05 in NNE 0.4 mph 4 mph 83% 0.00 in 0 W/m2
01:29 52.6 °F 47.6 °F 30.05 in NNE 0.2 mph 4 mph 83% 0.00 in 0 W/m2
01:34 52.5 °F 47.5 °F 30.05 in NNE 0.2 mph 4 mph 83% 0.00 in 0 W/m2
01:39 52.3 °F 47.3 °F 30.06 in NNW 0.4 mph 8 mph 83% 0.00 in 0 W/m2
01:44 52.1 °F 47.2 °F 30.06 in NNW 1.1 mph 8 mph 83.1% 0.00 in 0 W/m2
01:49 52 °F 47 °F 30.06 in NNW 0.2 mph 8 mph 83% 0.00 in 0 W/m2
01:54 51.8 °F 46.8 °F 30.06 in NNE 0.5 mph 8 mph 83% 0.00 in 0 W/m2
01:59 51.7 °F 46.9 °F 30.07 in NNE 1.1 mph 8 mph 83.6% 0.00 in 0 W/m2
02:04 51.5 °F 46.9 °F 30.07 in NNW 0.8 mph 8 mph 84% 0.00 in 0 W/m2
02:09 51.5 °F 46.8 °F 30.08 in NNE 0.2 mph 4 mph 84% 0.00 in 0 W/m2
02:14 51.4 °F 46.8 °F 30.08 in NNE 0.3 mph 4 mph 84% 0.00 in 0 W/m2
02:19 51.3 °F 46.7 °F 30.08 in NNE 0.2 mph 4 mph 84% 0.00 in 0 W/m2
02:24 51.3 °F 46.4 °F 30.08 in WNW 1.5 mph 12 mph 83.3% 0.00 in 0 W/m2
02:29 51.2 °F 46.2 °F 30.08 in North 2.1 mph 14 mph 83% 0.00 in 0 W/m2
02:34 51.1 °F 46.1 °F 30.08 in NW 1.4 mph 14 mph 83% 0.00 in 0 W/m2
02:39 51 °F 46 °F 30.08 in NW 1.9 mph 9 mph 83% 0.00 in 0 W/m2
02:44 50.8 °F 46.1 °F 30.08 in NW 0.3 mph 9 mph 83.7% 0.00 in 0 W/m2
02:49 50.7 °F 46.1 °F 30.08 in NW 1.1 mph 9 mph 84% 0.00 in 0 W/m2
02:54 50.5 °F 45.9 °F 30.08 in NNW 3.4 mph 13 mph 84% 0.00 in 0 W/m2
02:59 50.4 °F 45.8 °F 30.08 in NW 3.4 mph 16 mph 84% 0.00 in 0 W/m2
03:04 50.3 °F 45.7 °F 30.08 in WNW 4.3 mph 16 mph 84% 0.00 in 0 W/m2
03:09 50.2 °F 45.5 °F 30.08 in NW 2.3 mph 14 mph 84% 0.00 in 0 W/m2
03:14 50.1 °F 45.4 °F 30.08 in NW 4 mph 14 mph 84% 0.00 in 0 W/m2
03:19 50 °F 45.4 °F 30.08 in WNW 6.3 mph 16 mph 84% 0.00 in 0 W/m2
03:24 50 °F 45.3 °F 30.08 in WNW 3 mph 16 mph 84% 0.00 in 0 W/m2
03:29 49.9 °F 45.2 °F 30.08 in WNW 2.8 mph 16 mph 84% 0.00 in 0 W/m2
03:34 49.8 °F 45.1 °F 30.08 in NW 4.1 mph 16 mph 84% 0.00 in 0 W/m2
03:39 49.7 °F 45.1 °F 30.08 in WNW 1 mph 11 mph 84% 0.00 in 0 W/m2
03:44 49.7 °F 44.8 °F 30.08 in NW 1.5 mph 11 mph 83.2% 0.00 in 0 W/m2
03:49 49.6 °F 44.6 °F 30.08 in NW 0.9 mph 11 mph 83% 0.00 in 0 W/m2
03:54 49.4 °F 44.6 °F 30.08 in NNW 1.9 mph 11 mph 83.2% 0.00 in 0 W/m2
03:59 49.4 °F 44.6 °F 30.09 in NW 1.1 mph 11 mph 83.4% 0.00 in 0 W/m2
04:00 49.4 °F 44.5 °F 30.09 in Calm   11 mph 83% 0.00 in 0 W/m2
04:09 49.3 °F 44.6 °F 30.09 in NW 3.5 mph 11 mph 83.9% 0.00 in 0 W/m2
04:14 49.3 °F 44.5 °F 30.09 in NW 2.8 mph 11 mph 83.6% 0.00 in 0 W/m2
04:19 49.4 °F 44.5 °F 30.09 in NW 1 mph 11 mph 83% 0.00 in 0 W/m2
04:24 49.4 °F 44.5 °F 30.09 in NNW 1.2 mph 11 mph 83% 0.00 in 0 W/m2
04:29 49.4 °F 44.4 °F 30.09 in Calm   11 mph 83% 0.00 in 0 W/m2
04:34 49.3 °F 44.3 °F 30.09 in North 0.7 mph 11 mph 83% 0.00 in 0 W/m2
04:39 49.2 °F 44.2 °F 30.09 in NNW 0.6 mph 7 mph 83% 0.00 in 0 W/m2
04:44 49 °F 44.1 °F 30.09 in NNW 0.6 mph 7 mph 83% 0.00 in 0 W/m2
04:49 48.9 °F 44 °F 30.09 in Calm   7 mph 83% 0.00 in 0 W/m2
04:54 48.8 °F 43.8 °F 30.09 in NNW 0.2 mph 7 mph 83% 0.00 in 0 W/m2
04:59 48.7 °F 43.9 °F 30.10 in NNW 0.5 mph 7 mph 83.5% 0.00 in 0 W/m2
05:04 48.6 °F 44 °F 30.11 in NW 1.3 mph 10 mph 84% 0.00 in 0 W/m2
05:09 48.6 °F 44 °F 30.11 in NW 0.2 mph 10 mph 84% 0.00 in 0 W/m2
05:14 48.5 °F 43.6 °F 30.11 in NW 1.1 mph 10 mph 83.4% 0.00 in 0 W/m2
05:19 48.2 °F 43.3 °F 30.11 in NW 4 mph 12 mph 83% 0.00 in 0 W/m2
05:24 48.2 °F 43.7 °F 30.11 in NW 6.3 mph 15 mph 84.3% 0.00 in 0 W/m2
05:29 48.3 °F 43.1 °F 30.11 in NNW 5.5 mph 16 mph 82.2% 0.00 in 0 W/m2
05:34 48.3 °F 42.9 °F 30.11 in NW 6.7 mph 17 mph 81.5% 0.00 in 0 W/m2
05:39 48.4 °F 42.8 °F 30.12 in NW 5.1 mph 19 mph 81% 0.00 in 0 W/m2
05:44 48.4 °F 42.8 °F 30.12 in NW 3.3 mph 19 mph 81% 0.00 in 0 W/m2
05:49 48.3 °F 42.7 °F 30.13 in NNW 1.2 mph 19 mph 81% 0.00 in 0 W/m2
05:54 48.1 °F 42.5 °F 30.13 in NW 5.4 mph 19 mph 81% 0.00 in 0 W/m2
05:59 47.9 °F 42.4 °F 30.13 in NW 4.8 mph 19 mph 81% 0.00 in 0 W/m2
06:04 47.8 °F 42.4 °F 30.13 in NW 7.3 mph 19 mph 81.3% 0.00 in 0 W/m2
06:09 47.8 °F 42.3 °F 30.13 in NW 8.2 mph 18 mph 81% 0.00 in 0 W/m2
06:14 47.8 °F 42.3 °F 30.13 in NW 9.2 mph 18 mph 81% 0.00 in 0 W/m2
06:19 47.7 °F 42.2 °F 30.13 in NW 9.9 mph 18 mph 81% 0.00 in 0 W/m2
06:24 47.7 °F 42.2 °F 30.13 in NW 7.7 mph 18 mph 81% 0.00 in 0 W/m2
06:29 47.7 °F 42 °F 30.13 in NW 7.4 mph 18 mph 80.5% 0.00 in 0 W/m2
06:34 47.6 °F 42 °F 30.13 in NW 8.2 mph 18 mph 80.8% 0.00 in 0 W/m2
06:37 47.6 °F 41.7 °F 30.14 in WNW 5.2 mph 13 mph 80% 0.00 in 0 W/m2
07:00 47.2 °F 41.4 °F 30.14 in NW 6 mph 20 mph 80% 0.00 in 0 W/m2
07:30 47.2 °F 41 °F 30.15 in NW 6 mph 19 mph 79% 0.00 in 7 W/m2
08:04 48.9 °F 41.4 °F 30.16 in NW 5.3 mph 19 mph 75.3% 0.00 in 120 W/m2
08:09 49.2 °F 41.4 °F 30.16 in NW 3.5 mph 15 mph 74.2% 0.00 in 125 W/m2
08:14 49.5 °F 41.5 °F 30.16 in NW 3.9 mph 15 mph 73.7% 0.00 in 132 W/m2
08:19 49.7 °F 41.4 °F 30.16 in NW 2.6 mph 15 mph 73% 0.00 in 160 W/m2
08:24 49.9 °F 41.3 °F 30.16 in NW 2.8 mph 16 mph 72.1% 0.00 in 178 W/m2
08:29 50.2 °F 41.3 °F 30.16 in NW 3.8 mph 18 mph 71.4% 0.00 in 172 W/m2
08:34 50.4 °F 41.4 °F 30.17 in NW 1.9 mph 18 mph 71% 0.00 in 172 W/m2
08:39 50.5 °F 41.2 °F 30.17 in NW 4.8 mph 12 mph 70.4% 0.00 in 86 W/m2
08:44 50.2 °F 41 °F 30.17 in NW 2.3 mph 12 mph 70.5% 0.00 in 93 W/m2
08:49 50 °F 41 °F 30.18 in NW 4.9 mph 12 mph 71.2% 0.00 in 100 W/m2
08:54 49.7 °F 40.8 °F 30.17 in NW 5 mph 13 mph 71% 0.00 in 104 W/m2
08:59 49.6 °F 40.9 °F 30.18 in NW 4.6 mph 13 mph 72% 0.00 in 100 W/m2
09:04 49.5 °F 40.9 °F 30.18 in NW 0.7 mph 13 mph 72.1% 0.00 in 90 W/m2
09:09 49.4 °F 41.1 °F 30.18 in NW 0.8 mph 8 mph 73% 0.00 in 70 W/m2
09:14 49.3 °F 40.9 °F 30.18 in NW 4.7 mph 10 mph 72.5% 0.00 in 69 W/m2
09:19 49.2 °F 40.7 °F 30.18 in NW 2.8 mph 12 mph 72.4% 0.00 in 84 W/m2
09:24 49.1 °F 40.9 °F 30.18 in NW 4.1 mph 13 mph 73% 0.00 in 109 W/m2
09:29 49.2 °F 40.7 °F 30.18 in NW 7.7 mph 15 mph 72.3% 0.00 in 114 W/m2
09:34 49.3 °F 40.5 °F 30.18 in NW 2.7 mph 15 mph 71.7% 0.00 in 151 W/m2
09:39 49.6 °F 40.7 °F 30.18 in NW 4.2 mph 13 mph 71.3% 0.00 in 151 W/m2
09:44 49.8 °F 40.7 °F 30.18 in NW 2.5 mph 13 mph 70.5% 0.00 in 125 W/m2
09:49 50.1 °F 40.3 °F 30.18 in NW 2.9 mph 14 mph 69% 0.00 in 104 W/m2
09:54 50.2 °F 40.6 °F 30.18 in NW 1.6 mph 14 mph 69.4% 0.00 in 169 W/m2
09:59 50.6 °F 40.8 °F 30.18 in NNW 3.2 mph 15 mph 68.9% 0.00 in 135 W/m2
10:04 51 °F 40.5 °F 30.18 in WNW 2.8 mph 15 mph 67.1% 0.00 in 258 W/m2
10:09 51.4 °F 40.6 °F 30.18 in WNW 3.3 mph 12 mph 66.5% 0.00 in 381 W/m2
10:14 52 °F 41 °F 30.18 in NNW 2 mph 12 mph 66.1% 0.00 in 508 W/m2
10:19 52.9 °F 42.1 °F 30.17 in NNW 6.1 mph 13 mph 66.7% 0.00 in 541 W/m2
10:24 53.6 °F 41.4 °F 30.18 in NW 6.4 mph 13 mph 63.2% 0.00 in 522 W/m2
10:29 53.9 °F 41.4 °F 30.17 in NW 6 mph 14 mph 62.5% 0.00 in 341 W/m2
10:34 54 °F 41.8 °F 30.17 in NNW 1.8 mph 14 mph 63.2% 0.00 in 341 W/m2
10:39 53.9 °F 41.7 °F 30.17 in NW 2.8 mph 10 mph 63.1% 0.00 in 294 W/m2
10:44 53.9 °F 42.2 °F 30.17 in NW 3.9 mph 13 mph 64.5% 0.00 in 272 W/m2
10:49 53.8 °F 42.2 °F 30.17 in North 3.9 mph 13 mph 64.5% 0.00 in 162 W/m2
10:54 53.3 °F 41.6 °F 30.17 in NNW 3.3 mph 13 mph 64.5% 0.00 in 185 W/m2
10:59 52.8 °F 41.8 °F 30.17 in NNW 0.9 mph 13 mph 66% 0.00 in 220 W/m2
11:04 52.8 °F 42.2 °F 30.17 in NNW 2.3 mph 13 mph 67.2% 0.00 in 181 W/m2
11:09 52.9 °F 42 °F 30.17 in North 3.5 mph 13 mph 66.5% 0.00 in 135 W/m2
11:14 52.8 °F 42 °F 30.17 in NW 2.5 mph 13 mph 66.7% 0.00 in 90 W/m2
11:19 52.7 °F 41.9 °F 30.16 in North 0.5 mph 13 mph 66.5% 0.00 in 188 W/m2
11:24 52.9 °F 42.4 °F 30.16 in NNW 0.9 mph 13 mph 67.5% 0.00 in 262 W/m2
11:29 53.2 °F 42.7 °F 30.16 in North 1.2 mph 13 mph 67.3% 0.00 in 267 W/m2
11:34 53.5 °F 42.2 °F 30.16 in NNW 2.9 mph 15 mph 65.6% 0.00 in 206 W/m2
11:39 53.4 °F 42.3 °F 30.16 in NNW 3.2 mph 15 mph 65.9% 0.00 in 288 W/m2
11:44 53.2 °F 41.8 °F 30.16 in North 2.2 mph 15 mph 65% 0.00 in 135 W/m2
11:49 53 °F 41.3 °F 30.16 in NNE 0.9 mph 15 mph 64.3% 0.00 in 229 W/m2
11:54 52.7 °F 41.1 °F 30.16 in North 1 mph 15 mph 64.5% 0.00 in 276 W/m2
11:59 52.7 °F 41.3 °F 30.15 in NNW 5.4 mph 18 mph 64.9% 0.00 in 207 W/m2
12:04 52.7 °F 39.7 °F 30.15 in NW 1.6 mph 9 mph 61.3% 0.00 in 308 W/m2
12:09 52.7 °F 40 °F 30.15 in NW 5.6 mph 17 mph 61.9% 0.00 in 315 W/m2
12:14 52.9 °F 39.7 °F 30.15 in NW 5.6 mph 17 mph 60.8% 0.00 in 253 W/m2
12:19 53 °F 39.7 °F 30.14 in NW 3.5 mph 17 mph 60.6% 0.00 in 167 W/m2
12:24 52.9 °F 39.5 °F 30.14 in NW 5.2 mph 17 mph 60.2% 0.00 in 141 W/m2
12:29 53.1 °F 39.1 °F 30.14 in NW 5.5 mph 17 mph 59% 0.00 in 127 W/m2
12:34 53.2 °F 39.2 °F 30.13 in WNW 4.5 mph 17 mph 58.8% 0.00 in 445 W/m2
12:39 53.4 °F 39.1 °F 30.13 in WNW 6 mph 14 mph 58.1% 0.00 in 445 W/m2
12:44 53.5 °F 38.8 °F 30.14 in NW 6.6 mph 15 mph 57.3% 0.00 in 322 W/m2
12:49 53.5 °F 38.1 °F 30.14 in NW 7.4 mph 19 mph 55.8% 0.00 in 322 W/m2
12:54 53.4 °F 38.1 °F 30.14 in NW 7.2 mph 19 mph 56% 0.00 in 141 W/m2
12:59 53.1 °F 38.2 °F 30.14 in WNW 3 mph 19 mph 56.8% 0.00 in 185 W/m2
13:04 52.9 °F 38.3 °F 30.15 in NW 1.2 mph 19 mph 57.3% 0.00 in 81 W/m2
13:09 52.7 °F 38.5 °F 30.14 in WNW 3.5 mph 12 mph 58.2% 0.00 in 53 W/m2
13:14 52.5 °F 38.3 °F 30.14 in WNW 1.4 mph 12 mph 58.4% 0.00 in 70 W/m2
13:19 52.3 °F 38.5 °F 30.14 in NNW 1.9 mph 12 mph 59.1% 0.00 in 93 W/m2
13:24 52.2 °F 38.1 °F 30.15 in NW 2.8 mph 12 mph 58.6% 0.00 in 69 W/m2
13:29 52 °F 37.9 °F 30.14 in NW 2.3 mph 12 mph 58.4% 0.00 in 81 W/m2
13:34 51.9 °F 37.8 °F 30.14 in NNW 1.5 mph 12 mph 58.5% 0.00 in 107 W/m2
13:39 51.8 °F 37.9 °F 30.14 in NNW 1.2 mph 9 mph 59% 0.00 in 97 W/m2
13:44 51.8 °F 37.7 °F 30.14 in NW 4.3 mph 15 mph 58.5% 0.00 in 98 W/m2
13:49 51.7 °F 37.4 °F 30.14 in NW 3.5 mph 15 mph 58% 0.00 in 98 W/m2
13:54 51.6 °F 37.7 °F 30.14 in NW 0.5 mph 15 mph 58.8% 0.00 in 81 W/m2
13:59 51.6 °F 37.5 °F 30.14 in NNW 2.2 mph 15 mph 58.3% 0.00 in 67 W/m2
14:04 51.5 °F 37.2 °F 30.14 in NW 3.3 mph 15 mph 58% 0.00 in 83 W/m2
14:09 51.4 °F 37.1 °F 30.14 in NW 3.3 mph 12 mph 58% 0.00 in 63 W/m2
14:14 51.3 °F 36.8 °F 30.14 in WNW 5.3 mph 16 mph 57.4% 0.00 in 62 W/m2
14:19 51.2 °F 36.4 °F 30.14 in NW 3.3 mph 16 mph 56.8% 0.00 in 84 W/m2
14:24 51 °F 36.5 °F 30.14 in NW 2.2 mph 16 mph 57.4% 0.00 in 72 W/m2
14:29 51 °F 36.6 °F 30.14 in NW 2.5 mph 16 mph 57.7% 0.00 in 90 W/m2
14:34 51 °F 37 °F 30.14 in NW 2.3 mph 16 mph 58.5% 0.00 in 90 W/m2
14:39 51.1 °F 36.5 °F 30.14 in NW 3.2 mph 11 mph 57.3% 0.00 in 81 W/m2
14:44 51.3 °F 36.6 °F 30.15 in NW 2.2 mph 11 mph 57.2% 0.00 in 67 W/m2
14:49 51.4 °F 36.7 °F 30.15 in NW 4.6 mph 11 mph 57% 0.00 in 62 W/m2
14:54 51.2 °F 36.4 °F 30.15 in NNW 2.9 mph 12 mph 56.6% 0.00 in 54 W/m2
14:59 51.1 °F 36.4 °F 30.14 in NW 1.2 mph 12 mph 57% 0.00 in 54 W/m2
15:04 51 °F 36.6 °F 30.14 in NW 1.3 mph 12 mph 57.7% 0.00 in 47 W/m2
15:09 50.8 °F 36.3 °F 30.14 in NW 2.3 mph 9 mph 57.4% 0.00 in 30 W/m2
15:14 50.5 °F 35.9 °F 30.14 in NW 3.1 mph 11 mph 57% 0.00 in 21 W/m2
15:19 50.2 °F 35.7 °F 30.14 in NW 2.4 mph 11 mph 57.2% 0.00 in 19 W/m2
15:24 50 °F 35.7 °F 30.14 in NW 1.6 mph 11 mph 57.8% 0.00 in 19 W/m2
15:29 49.8 °F 35.9 °F 30.14 in NNW 2.3 mph 11 mph 58.7% 0.00 in 21 W/m2
15:34 49.7 °F 35.9 °F 30.13 in NW 0.3 mph 11 mph 59% 0.00 in 16 W/m2
15:39 49.5 °F 36 °F 30.13 in NNW 0.6 mph 5 mph 59.3% 0.00 in 14 W/m2
15:44 49.4 °F 36.1 °F 30.13 in NNW 1.1 mph 7 mph 60% 0.00 in 16 W/m2
15:49 49.2 °F 36 °F 30.13 in NNW 1.1 mph 7 mph 60.2% 0.00 in 18 W/m2
15:54 49 °F 35.9 °F 30.14 in NW 1.1 mph 7 mph 60.4% 0.00 in 14 W/m2
15:59 48.8 °F 36 °F 30.13 in NW 0.8 mph 7 mph 61% 0.00 in 14 W/m2
16:09 48.4 °F 36.3 °F 30.13 in NW 3.5 mph 10 mph 62.6% 0.00 in 5 W/m2
16:14 48.2 °F 36.4 °F 30.13 in WNW 4.8 mph 12 mph 63.6% 0.00 in 0 W/m2
16:19 47.9 °F 36.5 °F 30.13 in WNW 4.4 mph 12 mph 64.5% 0.00 in 0 W/m2
16:24 47.7 °F 36.8 °F 30.14 in WNW 3.4 mph 12 mph 65.7% 0.00 in 0 W/m2
16:29 47.4 °F 36.7 °F 30.13 in WNW 3.6 mph 12 mph 66.2% 0.00 in 0 W/m2
16:34 47.2 °F 36.8 °F 30.13 in WNW 2.6 mph 12 mph 67% 0.00 in 0 W/m2
16:39 47 °F 36.6 °F 30.14 in NW 1.3 mph 11 mph 67% 0.00 in 0 W/m2
16:44 46.8 °F 36.8 °F 30.14 in WNW 1.7 mph 11 mph 68% 0.00 in 0 W/m2
16:49 46.6 °F 36.6 °F 30.14 in NW 3.8 mph 11 mph 68% 0.00 in 0 W/m2
16:54 46.3 °F 36.4 °F 30.13 in NW 3.8 mph 11 mph 68% 0.00 in 0 W/m2
16:59 46.2 °F 36.6 °F 30.13 in NW 1.8 mph 11 mph 69% 0.00 in 0 W/m2
17:04 46 °F 36.1 °F 30.14 in NNW 1.8 mph 11 mph 68.2% 0.00 in 0 W/m2
17:09 45.8 °F 36.1 °F 30.14 in NW 3 mph 8 mph 68.5% 0.00 in 0 W/m2
17:14 45.7 °F 36.1 °F 30.14 in WNW 3.3 mph 10 mph 69% 0.00 in 0 W/m2
17:19 45.6 °F 36 °F 30.14 in WNW 6 mph 12 mph 69% 0.00 in 0 W/m2
17:24 45.4 °F 35.9 °F 30.14 in NW 4 mph 12 mph 69% 0.00 in 0 W/m2
17:29 45.3 °F 35.8 °F 30.14 in WNW 4.2 mph 12 mph 69% 0.00 in 0 W/m2
17:34 45.3 °F 35.7 °F 30.14 in NW 2.1 mph 12 mph 69% 0.00 in 0 W/m2
17:39 45.1 °F 35.6 °F 30.14 in WNW 2.3 mph 12 mph 69% 0.00 in 0 W/m2
17:44 45 °F 35.5 °F 30.15 in NW 2.3 mph 12 mph 69% 0.00 in 0 W/m2
17:49 44.9 °F 35.4 °F 30.15 in NW 1.6 mph 12 mph 69% 0.00 in 0 W/m2
17:54 44.8 °F 35.2 °F 30.15 in NW 1.1 mph 12 mph 69% 0.00 in 0 W/m2
17:59 44.7 °F 35.1 °F 30.16 in NW 1 mph 12 mph 69% 0.00 in 0 W/m2
18:04 44.5 °F 35 °F 30.16 in WNW 3.4 mph 12 mph 69% 0.00 in 0 W/m2
18:09 44.5 °F 35 °F 30.16 in WNW 4.3 mph 9 mph 69% 0.00 in 0 W/m2
18:14 44.4 °F 34.9 °F 30.16 in WNW 1.5 mph 9 mph 69% 0.00 in 0 W/m2
18:19 44.3 °F 34.8 °F 30.16 in WNW 1.4 mph 9 mph 69% 0.00 in 0 W/m2
18:24 44.2 °F 34.7 °F 30.17 in WNW 0.4 mph 9 mph 69% 0.00 in 0 W/m2
18:29 44.1 °F 34.6 °F 30.17 in WNW 0.4 mph 9 mph 69% 0.00 in 0 W/m2
18:34 44 °F 34.6 °F 30.17 in WNW 0.1 mph 9 mph 69.4% 0.00 in 0 W/m2
18:39 43.8 °F 34.5 °F 30.18 in WNW 0.5 mph 6 mph 69.4% 0.00 in 0 W/m2
18:44 43.6 °F 34.5 °F 30.18 in WNW 1.6 mph 6 mph 70% 0.00 in 0 W/m2
18:49 43.5 °F 34.4 °F 30.18 in NW 1.2 mph 7 mph 70% 0.00 in 0 W/m2
18:54 43.4 °F 34.3 °F 30.18 in WNW 0.8 mph 7 mph 70% 0.00 in 0 W/m2
18:59 43.3 °F 34.2 °F 30.17 in WNW 1 mph 7 mph 70% 0.00 in 0 W/m2
19:04 43.2 °F 34.1 °F 30.18 in WNW 0.3 mph 7 mph 70% 0.00 in 0 W/m2
19:09 43.2 °F 34.1 °F 30.18 in WNW 0.5 mph 5 mph 70% 0.00 in 0 W/m2
19:14 43.1 °F 34 °F 30.18 in NW 0.5 mph 5 mph 70% 0.00 in 0 W/m2
19:19 43 °F 34 °F 30.18 in NW 0.4 mph 5 mph 70.2% 0.00 in 0 W/m2
19:24 43 °F 34.3 °F 30.18 in NW 0.4 mph 5 mph 71.1% 0.00 in 0 W/m2
19:29 43.1 °F 34.5 °F 30.18 in NW 0.7 mph 5 mph 71.4% 0.00 in 0 W/m2
19:34 43.1 °F 34.4 °F 30.18 in NW 0.1 mph 5 mph 71.1% 0.00 in 0 W/m2
19:39 43.1 °F 34.4 °F 30.18 in NW 0.2 mph 4 mph 71.2% 0.00 in 0 W/m2
19:44 43.1 °F 34.3 °F 30.18 in Calm   4 mph 71% 0.00 in 0 W/m2
19:49 43.1 °F 34.3 °F 30.18 in NW 0.1 mph 4 mph 71% 0.00 in 0 W/m2
19:54 43 °F 34.2 °F 30.18 in Calm   4 mph 71% 0.00 in 0 W/m2
19:59 42.9 °F 34.1 °F 30.19 in Calm   4 mph 71% 0.00 in 0 W/m2
20:00 42.8 °F 34.1 °F 30.19 in Calm   4 mph 71% 0.00 in 0 W/m2
20:09 42.4 °F 34 °F 30.19 in NW 0.5 mph 4 mph 72% 0.00 in 0 W/m2
20:14 42.2 °F 33.8 °F 30.19 in NW 2.2 mph 7 mph 72% 0.00 in 0 W/m2
20:19 42 °F 33.9 °F 30.18 in NW 3.1 mph 9 mph 72.7% 0.00 in 0 W/m2
20:30 41.7 °F 34 °F 30.18 in NW 2 mph 12 mph 74% 0.00 in 0 W/m2
21:00 41.7 °F 34 °F 30.19 in NNW 4 mph 13 mph 74% 0.00 in 0 W/m2
21:30 40.7 °F 33.4 °F 30.20 in Calm   4 mph 75% 0.00 in 0 W/m2
22:00 39.5 °F 32.6 °F 30.21 in Calm   13 mph 76% 0.00 in 0 W/m2
22:30 38.7 °F 32.4 °F 30.23 in Calm   5 mph 78% 0.00 in 0 W/m2
23:04 38 °F 31.5 °F 30.23 in NNW 0.8 mph 5 mph 77.1% 0.00 in 0 W/m2
23:09 37.9 °F 31.4 °F 30.23 in Calm   4 mph 77% 0.00 in 0 W/m2
23:14 37.8 °F 31.3 °F 30.23 in NNW 0.4 mph 5 mph 77% 0.00 in 0 W/m2
23:19 37.7 °F 31.1 °F 30.23 in NNW 0.6 mph 5 mph 77% 0.00 in 0 W/m2
23:24 37.5 °F 31 °F 30.22 in Calm   5 mph 77% 0.00 in 0 W/m2
23:29 37.4 °F 30.9 °F 30.22 in NNE 0.6 mph 5 mph 77% 0.00 in 0 W/m2
23:34 37.3 °F 30.5 °F 30.22 in North 0.5 mph 5 mph 76.3% 0.00 in 0 W/m2
23:39 37.1 °F 30.3 °F 30.22 in NNW 1.5 mph 7 mph 76% 0.00 in 0 W/m2
23:44 37.1 °F 30.3 °F 30.22 in NNW 0.8 mph 7 mph 76% 0.00 in 0 W/m2
23:49 37.1 °F 30.2 °F 30.22 in NNW 0.3 mph 7 mph 76% 0.00 in 0 W/m2
23:54 37 °F 30.1 °F 30.22 in NNW 0.4 mph 7 mph 76% 0.00 in 0 W/m2
23:59 36.9 °F 29.8 °F 30.22 in NNW 0.5 mph 7 mph 75.4% 0.00 in 0 W/m2
Hartford County Weather
Compliments of Weather Underground - 4 mb